sensor_id;sensor_type;location;lat;lon;timestamp;temperature;humidity
11961;DHT22;6040;49.358;11.140;2022-07-06T00:00:06;16.20;91.50
11961;DHT22;6040;49.358;11.140;2022-07-06T00:02:35;16.20;91.50
11961;DHT22;6040;49.358;11.140;2022-07-06T00:05:02;17.20;91.70
11961;DHT22;6040;49.358;11.140;2022-07-06T00:07:29;16.10;91.60
11961;DHT22;6040;49.358;11.140;2022-07-06T00:09:55;16.00;92.10
11961;DHT22;6040;49.358;11.140;2022-07-06T00:12:25;15.80;92.80
11961;DHT22;6040;49.358;11.140;2022-07-06T00:14:51;15.70;92.80
11961;DHT22;6040;49.358;11.140;2022-07-06T00:17:19;15.70;93.00
11961;DHT22;6040;49.358;11.140;2022-07-06T00:19:45;15.70;92.80
11961;DHT22;6040;49.358;11.140;2022-07-06T00:22:12;15.70;92.90
11961;DHT22;6040;49.358;11.140;2022-07-06T00:24:39;15.70;92.80
11961;DHT22;6040;49.358;11.140;2022-07-06T00:27:06;15.70;93.10
11961;DHT22;6040;49.358;11.140;2022-07-06T00:29:34;15.70;93.10
11961;DHT22;6040;49.358;11.140;2022-07-06T00:32:01;15.70;93.40
11961;DHT22;6040;49.358;11.140;2022-07-06T00:34:28;15.70;92.90
11961;DHT22;6040;49.358;11.140;2022-07-06T00:36:55;15.70;93.30
11961;DHT22;6040;49.358;11.140;2022-07-06T00:39:22;15.60;93.70
11961;DHT22;6040;49.358;11.140;2022-07-06T00:41:54;15.60;93.60
11961;DHT22;6040;49.358;11.140;2022-07-06T00:44:21;15.50;93.70
11961;DHT22;6040;49.358;11.140;2022-07-06T00:46:49;15.50;93.80
11961;DHT22;6040;49.358;11.140;2022-07-06T00:49:16;15.40;93.90
11961;DHT22;6040;49.358;11.140;2022-07-06T00:51:57;15.40;94.40
11961;DHT22;6040;49.358;11.140;2022-07-06T00:54:25;15.30;94.30
11961;DHT22;6040;49.358;11.140;2022-07-06T00:56:52;15.20;94.70
11961;DHT22;6040;49.358;11.140;2022-07-06T00:59:19;15.20;94.40
11961;DHT22;6040;49.358;11.140;2022-07-06T01:01:46;15.10;95.10
11961;DHT22;6040;49.358;11.140;2022-07-06T01:04:14;15.10;95.30
11961;DHT22;6040;49.358;11.140;2022-07-06T01:06:41;15.10;95.30
11961;DHT22;6040;49.358;11.140;2022-07-06T01:09:08;15.00;95.90
11961;DHT22;6040;49.358;11.140;2022-07-06T01:11:35;15.00;96.10
11961;DHT22;6040;49.358;11.140;2022-07-06T01:14:02;14.90;96.20
11961;DHT22;6040;49.358;11.140;2022-07-06T01:16:30;14.90;96.00
11961;DHT22;6040;49.358;11.140;2022-07-06T01:18:57;14.90;96.00
11961;DHT22;6040;49.358;11.140;2022-07-06T01:21:25;14.90;96.30
11961;DHT22;6040;49.358;11.140;2022-07-06T01:23:52;14.90;96.10
11961;DHT22;6040;49.358;11.140;2022-07-06T01:26:20;14.80;96.50
11961;DHT22;6040;49.358;11.140;2022-07-06T01:28:49;14.70;96.50
11961;DHT22;6040;49.358;11.140;2022-07-06T01:31:18;14.70;97.00
11961;DHT22;6040;49.358;11.140;2022-07-06T01:33:45;14.60;97.30
11961;DHT22;6040;49.358;11.140;2022-07-06T01:36:12;14.60;97.50
11961;DHT22;6040;49.358;11.140;2022-07-06T01:38:47;14.50;97.40
11961;DHT22;6040;49.358;11.140;2022-07-06T01:41:14;14.50;97.70
11961;DHT22;6040;49.358;11.140;2022-07-06T01:43:41;14.50;97.80
11961;DHT22;6040;49.358;11.140;2022-07-06T01:46:08;14.50;98.20
11961;DHT22;6040;49.358;11.140;2022-07-06T01:48:35;14.40;98.30
11961;DHT22;6040;49.358;11.140;2022-07-06T01:51:03;14.40;98.20
11961;DHT22;6040;49.358;11.140;2022-07-06T01:53:29;14.40;97.90
11961;DHT22;6040;49.358;11.140;2022-07-06T01:55:58;14.50;97.80
11961;DHT22;6040;49.358;11.140;2022-07-06T01:58:24;14.40;98.10
11961;DHT22;6040;49.358;11.140;2022-07-06T02:00:51;14.40;98.30
11961;DHT22;6040;49.358;11.140;2022-07-06T02:03:18;14.50;98.10
11961;DHT22;6040;49.358;11.140;2022-07-06T02:05:45;14.50;98.20
11961;DHT22;6040;49.358;11.140;2022-07-06T02:08:12;14.50;98.00
11961;DHT22;6040;49.358;11.140;2022-07-06T02:10:39;14.40;98.20
11961;DHT22;6040;49.358;11.140;2022-07-06T02:13:07;14.30;98.30
11961;DHT22;6040;49.358;11.140;2022-07-06T02:15:34;14.20;98.40
11961;DHT22;6040;49.358;11.140;2022-07-06T02:18:01;16.50;99.30
11961;DHT22;6040;49.358;11.140;2022-07-06T02:20:28;14.00;99.20
11961;DHT22;6040;49.358;11.140;2022-07-06T02:22:55;14.00;98.80
11961;DHT22;6040;49.358;11.140;2022-07-06T02:25:22;14.00;99.30
11961;DHT22;6040;49.358;11.140;2022-07-06T02:27:49;14.10;99.20
11961;DHT22;6040;49.358;11.140;2022-07-06T02:30:17;14.10;99.20
11961;DHT22;6040;49.358;11.140;2022-07-06T02:32:44;14.10;99.00
11961;DHT22;6040;49.358;11.140;2022-07-06T02:35:11;14.10;98.80
11961;DHT22;6040;49.358;11.140;2022-07-06T02:37:38;14.00;98.90
11961;DHT22;6040;49.358;11.140;2022-07-06T02:40:06;13.90;98.90
11961;DHT22;6040;49.358;11.140;2022-07-06T02:42:33;13.90;99.00
11961;DHT22;6040;49.358;11.140;2022-07-06T02:45:01;13.90;98.90
11961;DHT22;6040;49.358;11.140;2022-07-06T02:47:29;13.90;99.00
11961;DHT22;6040;49.358;11.140;2022-07-06T02:49:56;13.80;99.30
11961;DHT22;6040;49.358;11.140;2022-07-06T02:52:23;13.80;99.90
11961;DHT22;6040;49.358;11.140;2022-07-06T02:54:50;13.70;99.90
11961;DHT22;6040;49.358;11.140;2022-07-06T02:57:17;13.70;99.90
11961;DHT22;6040;49.358;11.140;2022-07-06T02:59:44;13.70;99.90
11961;DHT22;6040;49.358;11.140;2022-07-06T03:02:11;13.90;99.90
11961;DHT22;6040;49.358;11.140;2022-07-06T03:04:39;13.90;99.90
11961;DHT22;6040;49.358;11.140;2022-07-06T03:07:06;13.90;99.80
11961;DHT22;6040;49.358;11.140;2022-07-06T03:09:33;13.90;99.70
11961;DHT22;6040;49.358;11.140;2022-07-06T03:12:00;13.90;99.60
11961;DHT22;6040;49.358;11.140;2022-07-06T03:14:27;13.80;99.70
11961;DHT22;6040;49.358;11.140;2022-07-06T03:16:54;13.70;99.90
11961;DHT22;6040;49.358;11.140;2022-07-06T03:19:21;13.70;99.90
11961;DHT22;6040;49.358;11.140;2022-07-06T03:21:50;13.70;99.60
11961;DHT22;6040;49.358;11.140;2022-07-06T03:24:16;13.70;99.90
11961;DHT22;6040;49.358;11.140;2022-07-06T03:26:43;13.70;99.90
11961;DHT22;6040;49.358;11.140;2022-07-06T03:29:10;13.70;99.90
11961;DHT22;6040;49.358;11.140;2022-07-06T03:31:37;13.60;99.90
11961;DHT22;6040;49.358;11.140;2022-07-06T03:34:04;13.60;99.90
11961;DHT22;6040;49.358;11.140;2022-07-06T03:36:31;13.50;99.90
11961;DHT22;6040;49.358;11.140;2022-07-06T03:39:00;13.50;99.90
11961;DHT22;6040;49.358;11.140;2022-07-06T03:41:27;13.50;99.90
11961;DHT22;6040;49.358;11.140;2022-07-06T03:43:53;13.50;99.90
11961;DHT22;6040;49.358;11.140;2022-07-06T03:46:20;13.50;99.90
11961;DHT22;6040;49.358;11.140;2022-07-06T03:48:47;13.50;99.90
11961;DHT22;6040;49.358;11.140;2022-07-06T03:51:14;13.60;99.90
11961;DHT22;6040;49.358;11.140;2022-07-06T03:53:41;13.70;99.90
11961;DHT22;6040;49.358;11.140;2022-07-06T03:56:09;13.70;99.90
11961;DHT22;6040;49.358;11.140;2022-07-06T03:58:54;13.70;99.90
11961;DHT22;6040;49.358;11.140;2022-07-06T04:01:21;13.80;99.90
11961;DHT22;6040;49.358;11.140;2022-07-06T04:03:48;13.90;99.90
11961;DHT22;6040;49.358;11.140;2022-07-06T04:06:15;13.90;99.90
11961;DHT22;6040;49.358;11.140;2022-07-06T04:08:42;13.90;99.90
11961;DHT22;6040;49.358;11.140;2022-07-06T04:11:10;14.00;99.90
11961;DHT22;6040;49.358;11.140;2022-07-06T04:13:37;14.10;99.90
11961;DHT22;6040;49.358;11.140;2022-07-06T04:16:04;14.10;99.90
11961;DHT22;6040;49.358;11.140;2022-07-06T04:18:31;14.30;99.90
11961;DHT22;6040;49.358;11.140;2022-07-06T04:20:58;14.40;99.90
11961;DHT22;6040;49.358;11.140;2022-07-06T04:23:25;14.50;99.90
11961;DHT22;6040;49.358;11.140;2022-07-06T04:25:52;14.60;99.90
11961;DHT22;6040;49.358;11.140;2022-07-06T04:28:20;14.70;99.90
11961;DHT22;6040;49.358;11.140;2022-07-06T04:30:47;14.70;99.90
11961;DHT22;6040;49.358;11.140;2022-07-06T04:33:14;14.80;99.90
11961;DHT22;6040;49.358;11.140;2022-07-06T04:35:41;14.70;99.90
11961;DHT22;6040;49.358;11.140;2022-07-06T04:38:07;14.70;99.90
11961;DHT22;6040;49.358;11.140;2022-07-06T04:40:34;14.60;99.90
11961;DHT22;6040;49.358;11.140;2022-07-06T04:43:01;14.60;99.90
11961;DHT22;6040;49.358;11.140;2022-07-06T04:45:29;14.70;99.90
11961;DHT22;6040;49.358;11.140;2022-07-06T04:47:56;14.60;99.90
11961;DHT22;6040;49.358;11.140;2022-07-06T04:50:23;14.70;99.90
11961;DHT22;6040;49.358;11.140;2022-07-06T04:52:50;14.80;99.90
11961;DHT22;6040;49.358;11.140;2022-07-06T04:55:17;14.90;99.90
11961;DHT22;6040;49.358;11.140;2022-07-06T04:57:44;15.00;99.90
11961;DHT22;6040;49.358;11.140;2022-07-06T05:00:11;15.20;99.90
11961;DHT22;6040;49.358;11.140;2022-07-06T05:02:40;15.30;99.90
11961;DHT22;6040;49.358;11.140;2022-07-06T05:05:07;15.40;99.90
11961;DHT22;6040;49.358;11.140;2022-07-06T05:07:35;15.40;99.90
11961;DHT22;6040;49.358;11.140;2022-07-06T05:10:06;15.40;99.40
11961;DHT22;6040;49.358;11.140;2022-07-06T05:12:33;15.60;99.20
11961;DHT22;6040;49.358;11.140;2022-07-06T05:15:00;15.80;99.00
11961;DHT22;6040;49.358;11.140;2022-07-06T05:17:27;16.00;98.90
11961;DHT22;6040;49.358;11.140;2022-07-06T05:19:55;16.10;98.60
11961;DHT22;6040;49.358;11.140;2022-07-06T05:22:22;16.30;98.40
11961;DHT22;6040;49.358;11.140;2022-07-06T05:24:49;16.50;98.10
11961;DHT22;6040;49.358;11.140;2022-07-06T05:27:16;16.70;97.90
11961;DHT22;6040;49.358;11.140;2022-07-06T05:29:43;16.90;97.90
11961;DHT22;6040;49.358;11.140;2022-07-06T05:32:10;17.00;97.70
11961;DHT22;6040;49.358;11.140;2022-07-06T05:34:37;17.20;97.40
11961;DHT22;6040;49.358;11.140;2022-07-06T05:37:06;17.50;97.40
11961;DHT22;6040;49.358;11.140;2022-07-06T05:39:33;18.30;97.00
11961;DHT22;6040;49.358;11.140;2022-07-06T05:42:00;19.30;94.70
11961;DHT22;6040;49.358;11.140;2022-07-06T05:44:27;19.70;94.60
11961;DHT22;6040;49.358;11.140;2022-07-06T05:46:54;20.00;92.90
11961;DHT22;6040;49.358;11.140;2022-07-06T05:49:41;20.90;91.20
11961;DHT22;6040;49.358;11.140;2022-07-06T05:52:27;22.30;85.70
11961;DHT22;6040;49.358;11.140;2022-07-06T05:54:54;22.70;83.00
11961;DHT22;6040;49.358;11.140;2022-07-06T05:57:20;23.30;84.00
11961;DHT22;6040;49.358;11.140;2022-07-06T05:59:47;24.20;79.70
11961;DHT22;6040;49.358;11.140;2022-07-06T06:02:14;24.50;75.00
11961;DHT22;6040;49.358;11.140;2022-07-06T06:04:41;24.60;75.30
11961;DHT22;6040;49.358;11.140;2022-07-06T06:07:08;25.30;74.80
11961;DHT22;6040;49.358;11.140;2022-07-06T06:09:36;26.00;72.00
11961;DHT22;6040;49.358;11.140;2022-07-06T06:12:04;26.60;71.00
11961;DHT22;6040;49.358;11.140;2022-07-06T06:14:31;27.40;67.80
11961;DHT22;6040;49.358;11.140;2022-07-06T06:16:58;27.90;67.50
11961;DHT22;6040;49.358;11.140;2022-07-06T06:19:25;28.10;65.80
11961;DHT22;6040;49.358;11.140;2022-07-06T06:21:52;28.20;65.60
11961;DHT22;6040;49.358;11.140;2022-07-06T06:24:18;28.20;64.20
11961;DHT22;6040;49.358;11.140;2022-07-06T06:26:47;28.00;64.70
11961;DHT22;6040;49.358;11.140;2022-07-06T06:29:13;27.70;65.40
11961;DHT22;6040;49.358;11.140;2022-07-06T06:31:40;27.40;67.90
11961;DHT22;6040;49.358;11.140;2022-07-06T06:34:07;27.30;67.80
11961;DHT22;6040;49.358;11.140;2022-07-06T06:36:34;27.20;67.20
11961;DHT22;6040;49.358;11.140;2022-07-06T06:39:01;27.20;67.50
11961;DHT22;6040;49.358;11.140;2022-07-06T06:41:28;27.20;67.60
11961;DHT22;6040;49.358;11.140;2022-07-06T06:43:56;27.20;68.30
11961;DHT22;6040;49.358;11.140;2022-07-06T06:46:23;27.30;67.70
11961;DHT22;6040;49.358;11.140;2022-07-06T06:48:50;27.30;68.10
11961;DHT22;6040;49.358;11.140;2022-07-06T06:51:17;27.40;67.10
11961;DHT22;6040;49.358;11.140;2022-07-06T06:53:43;27.50;67.50
11961;DHT22;6040;49.358;11.140;2022-07-06T06:56:10;27.70;66.20
11961;DHT22;6040;49.358;11.140;2022-07-06T06:58:37;27.70;64.70
11961;DHT22;6040;49.358;11.140;2022-07-06T07:01:06;27.90;65.70
11961;DHT22;6040;49.358;11.140;2022-07-06T07:03:33;27.90;63.10
11961;DHT22;6040;49.358;11.140;2022-07-06T07:06:00;27.90;66.20
11961;DHT22;6040;49.358;11.140;2022-07-06T07:08:27;28.10;66.10
11961;DHT22;6040;49.358;11.140;2022-07-06T07:10:54;28.10;65.20
11961;DHT22;6040;49.358;11.140;2022-07-06T07:13:21;28.10;66.20
11961;DHT22;6040;49.358;11.140;2022-07-06T07:15:47;28.20;64.90
11961;DHT22;6040;49.358;11.140;2022-07-06T07:18:16;28.20;63.80
11961;DHT22;6040;49.358;11.140;2022-07-06T07:20:42;28.20;64.10
11961;DHT22;6040;49.358;11.140;2022-07-06T07:23:09;27.90;64.00
11961;DHT22;6040;49.358;11.140;2022-07-06T07:25:36;28.10;62.70
11961;DHT22;6040;49.358;11.140;2022-07-06T07:28:04;28.00;62.60
11961;DHT22;6040;49.358;11.140;2022-07-06T07:30:31;28.00;63.50
11961;DHT22;6040;49.358;11.140;2022-07-06T07:32:58;28.10;63.80
11961;DHT22;6040;49.358;11.140;2022-07-06T07:35:28;28.30;62.90
11961;DHT22;6040;49.358;11.140;2022-07-06T07:37:54;28.30;60.70
11961;DHT22;6040;49.358;11.140;2022-07-06T07:40:21;28.20;63.70
11961;DHT22;6040;49.358;11.140;2022-07-06T07:42:48;28.20;63.10
11961;DHT22;6040;49.358;11.140;2022-07-06T07:45:15;28.20;62.30
11961;DHT22;6040;49.358;11.140;2022-07-06T07:47:42;28.00;61.60
11961;DHT22;6040;49.358;11.140;2022-07-06T07:50:10;27.80;61.40
11961;DHT22;6040;49.358;11.140;2022-07-06T07:52:39;27.80;63.10
11961;DHT22;6040;49.358;11.140;2022-07-06T07:55:06;27.90;62.90
11961;DHT22;6040;49.358;11.140;2022-07-06T07:57:33;28.10;64.40
11961;DHT22;6040;49.358;11.140;2022-07-06T08:00:00;28.40;62.70
11961;DHT22;6040;49.358;11.140;2022-07-06T08:02:27;28.80;62.40
11961;DHT22;6040;49.358;11.140;2022-07-06T08:04:54;29.20;62.00
11961;DHT22;6040;49.358;11.140;2022-07-06T08:07:21;29.50;59.90
11961;DHT22;6040;49.358;11.140;2022-07-06T08:09:49;29.90;60.20
11961;DHT22;6040;49.358;11.140;2022-07-06T08:12:16;29.80;58.10
11961;DHT22;6040;49.358;11.140;2022-07-06T08:14:43;29.80;60.00
11961;DHT22;6040;49.358;11.140;2022-07-06T08:17:10;29.90;58.40
11961;DHT22;6040;49.358;11.140;2022-07-06T08:19:37;30.10;58.80
11961;DHT22;6040;49.358;11.140;2022-07-06T08:22:04;29.90;57.40
11961;DHT22;6040;49.358;11.140;2022-07-06T08:24:33;30.10;58.40
11961;DHT22;6040;49.358;11.140;2022-07-06T08:27:01;30.30;58.10
11961;DHT22;6040;49.358;11.140;2022-07-06T08:29:28;30.70;57.50
11961;DHT22;6040;49.358;11.140;2022-07-06T08:31:56;30.60;58.40
11961;DHT22;6040;49.358;11.140;2022-07-06T08:34:23;30.70;57.00
11961;DHT22;6040;49.358;11.140;2022-07-06T08:36:50;30.50;55.10
11961;DHT22;6040;49.358;11.140;2022-07-06T08:39:17;30.10;58.00
11961;DHT22;6040;49.358;11.140;2022-07-06T08:41:44;30.20;57.30
11961;DHT22;6040;49.358;11.140;2022-07-06T08:44:14;30.30;58.10
11961;DHT22;6040;49.358;11.140;2022-07-06T08:46:42;30.80;56.70
11961;DHT22;6040;49.358;11.140;2022-07-06T08:49:12;31.20;55.40
11961;DHT22;6040;49.358;11.140;2022-07-06T08:51:40;31.30;55.00
11961;DHT22;6040;49.358;11.140;2022-07-06T08:54:07;31.40;55.40
11961;DHT22;6040;49.358;11.140;2022-07-06T08:56:35;31.30;52.80
11961;DHT22;6040;49.358;11.140;2022-07-06T08:59:02;31.70;53.80
11961;DHT22;6040;49.358;11.140;2022-07-06T09:01:31;31.90;53.70
11961;DHT22;6040;49.358;11.140;2022-07-06T09:04:00;32.20;53.60
11961;DHT22;6040;49.358;11.140;2022-07-06T09:06:29;32.30;52.70
11961;DHT22;6040;49.358;11.140;2022-07-06T09:08:57;31.80;51.90
11961;DHT22;6040;49.358;11.140;2022-07-06T09:11:25;31.50;54.30
11961;DHT22;6040;49.358;11.140;2022-07-06T09:13:52;31.30;52.60
11961;DHT22;6040;49.358;11.140;2022-07-06T09:16:27;31.20;53.80
11961;DHT22;6040;49.358;11.140;2022-07-06T09:18:56;31.60;52.90
11961;DHT22;6040;49.358;11.140;2022-07-06T09:21:25;31.90;53.50
11961;DHT22;6040;49.358;11.140;2022-07-06T09:23:56;31.90;51.20
11961;DHT22;6040;49.358;11.140;2022-07-06T09:26:23;31.60;53.10
11961;DHT22;6040;49.358;11.140;2022-07-06T09:28:51;31.20;52.60
11961;DHT22;6040;49.358;11.140;2022-07-06T09:31:18;30.70;53.50
11961;DHT22;6040;49.358;11.140;2022-07-06T09:33:57;30.50;53.00
11961;DHT22;6040;49.358;11.140;2022-07-06T09:36:38;30.50;54.10
11961;DHT22;6040;49.358;11.140;2022-07-06T09:39:20;31.00;54.00
11961;DHT22;6040;49.358;11.140;2022-07-06T09:41:49;31.10;53.20
11961;DHT22;6040;49.358;11.140;2022-07-06T09:44:21;31.10;52.60
11961;DHT22;6040;49.358;11.140;2022-07-06T09:46:48;31.10;53.50
11961;DHT22;6040;49.358;11.140;2022-07-06T09:49:18;31.00;55.50
11961;DHT22;6040;49.358;11.140;2022-07-06T09:51:46;31.00;52.80
11961;DHT22;6040;49.358;11.140;2022-07-06T09:54:14;30.90;53.20
11961;DHT22;6040;49.358;11.140;2022-07-06T09:56:45;30.50;53.50
11961;DHT22;6040;49.358;11.140;2022-07-06T09:59:17;30.30;54.60
11961;DHT22;6040;49.358;11.140;2022-07-06T10:01:44;30.60;56.80
11961;DHT22;6040;49.358;11.140;2022-07-06T10:04:13;31.20;54.60
11961;DHT22;6040;49.358;11.140;2022-07-06T10:06:42;31.50;52.60
11961;DHT22;6040;49.358;11.140;2022-07-06T10:09:09;31.10;53.50
11961;DHT22;6040;49.358;11.140;2022-07-06T10:11:38;30.60;53.50
11961;DHT22;6040;49.358;11.140;2022-07-06T10:14:06;30.40;53.60
11961;DHT22;6040;49.358;11.140;2022-07-06T10:16:35;30.30;53.90
11961;DHT22;6040;49.358;11.140;2022-07-06T10:19:04;30.70;55.20
11961;DHT22;6040;49.358;11.140;2022-07-06T10:21:33;31.20;53.60
11961;DHT22;6040;49.358;11.140;2022-07-06T10:24:03;32.00;53.60
11961;DHT22;6040;49.358;11.140;2022-07-06T10:26:31;31.90;54.50
11961;DHT22;6040;49.358;11.140;2022-07-06T10:28:59;31.90;52.00
11961;DHT22;6040;49.358;11.140;2022-07-06T10:31:27;31.90;52.30
11961;DHT22;6040;49.358;11.140;2022-07-06T10:33:55;31.60;51.60
11961;DHT22;6040;49.358;11.140;2022-07-06T10:36:24;31.20;52.10
11961;DHT22;6040;49.358;11.140;2022-07-06T10:38:52;30.60;53.40
11961;DHT22;6040;49.358;11.140;2022-07-06T10:41:30;30.10;52.60
11961;DHT22;6040;49.358;11.140;2022-07-06T10:43:57;29.90;54.20
11961;DHT22;6040;49.358;11.140;2022-07-06T10:46:28;30.20;53.80
11961;DHT22;6040;49.358;11.140;2022-07-06T10:48:56;30.80;53.60
11961;DHT22;6040;49.358;11.140;2022-07-06T10:51:25;30.70;52.40
11961;DHT22;6040;49.358;11.140;2022-07-06T10:53:56;30.20;52.30
11961;DHT22;6040;49.358;11.140;2022-07-06T10:56:36;30.30;53.10
11961;DHT22;6040;49.358;11.140;2022-07-06T10:59:09;30.50;53.80
11961;DHT22;6040;49.358;11.140;2022-07-06T11:01:36;30.90;53.50
11961;DHT22;6040;49.358;11.140;2022-07-06T11:04:07;31.40;52.30
11961;DHT22;6040;49.358;11.140;2022-07-06T11:06:35;31.60;51.50
11961;DHT22;6040;49.358;11.140;2022-07-06T11:09:04;31.60;52.40
11961;DHT22;6040;49.358;11.140;2022-07-06T11:11:41;32.00;53.00
11961;DHT22;6040;49.358;11.140;2022-07-06T11:14:10;31.80;51.70
11961;DHT22;6040;49.358;11.140;2022-07-06T11:16:58;31.80;51.20
11961;DHT22;6040;49.358;11.140;2022-07-06T11:19:27;31.60;52.70
11961;DHT22;6040;49.358;11.140;2022-07-06T11:21:56;31.70;52.20
11961;DHT22;6040;49.358;11.140;2022-07-06T11:24:25;31.60;50.90
11961;DHT22;6040;49.358;11.140;2022-07-06T11:26:54;31.80;51.60
11961;DHT22;6040;49.358;11.140;2022-07-06T11:29:23;31.80;50.10
11961;DHT22;6040;49.358;11.140;2022-07-06T11:31:52;31.60;50.80
11961;DHT22;6040;49.358;11.140;2022-07-06T11:34:22;30.90;51.30
11961;DHT22;6040;49.358;11.140;2022-07-06T11:36:49;30.00;52.10
11961;DHT22;6040;49.358;11.140;2022-07-06T11:39:20;29.60;53.50
11961;DHT22;6040;49.358;11.140;2022-07-06T11:41:47;29.20;54.20
11961;DHT22;6040;49.358;11.140;2022-07-06T11:44:15;29.10;55.10
11961;DHT22;6040;49.358;11.140;2022-07-06T11:46:42;29.50;55.80
11961;DHT22;6040;49.358;11.140;2022-07-06T11:49:09;30.00;54.30
11961;DHT22;6040;49.358;11.140;2022-07-06T11:51:38;30.50;52.90
11961;DHT22;6040;49.358;11.140;2022-07-06T11:54:09;30.90;53.00
11961;DHT22;6040;49.358;11.140;2022-07-06T11:56:36;31.20;53.00
11961;DHT22;6040;49.358;11.140;2022-07-06T11:59:03;31.30;51.50
11961;DHT22;6040;49.358;11.140;2022-07-06T12:01:31;31.70;51.30
11961;DHT22;6040;49.358;11.140;2022-07-06T12:04:00;31.90;52.20
11961;DHT22;6040;49.358;11.140;2022-07-06T12:06:28;32.20;50.90
11961;DHT22;6040;49.358;11.140;2022-07-06T12:08:57;31.90;49.70
11961;DHT22;6040;49.358;11.140;2022-07-06T12:11:26;31.30;50.50
11961;DHT22;6040;49.358;11.140;2022-07-06T12:13:55;31.10;50.40
11961;DHT22;6040;49.358;11.140;2022-07-06T12:16:29;30.60;50.70
11961;DHT22;6040;49.358;11.140;2022-07-06T12:18:57;30.00;51.40
11961;DHT22;6040;49.358;11.140;2022-07-06T12:21:25;29.90;52.10
11961;DHT22;6040;49.358;11.140;2022-07-06T12:23:53;29.80;51.50
11961;DHT22;6040;49.358;11.140;2022-07-06T12:26:23;29.40;52.80
11961;DHT22;6040;49.358;11.140;2022-07-06T12:29:00;29.40;52.10
11961;DHT22;6040;49.358;11.140;2022-07-06T12:31:31;29.90;51.60
11961;DHT22;6040;49.358;11.140;2022-07-06T12:34:00;30.30;52.90
11961;DHT22;6040;49.358;11.140;2022-07-06T12:36:27;30.40;50.70
11961;DHT22;6040;49.358;11.140;2022-07-06T12:38:54;30.20;50.60
11961;DHT22;6040;49.358;11.140;2022-07-06T12:41:29;29.90;51.10
11961;DHT22;6040;49.358;11.140;2022-07-06T12:44:05;29.50;52.00
11961;DHT22;6040;49.358;11.140;2022-07-06T12:46:33;29.00;51.70
11961;DHT22;6040;49.358;11.140;2022-07-06T12:49:10;29.00;53.00
11961;DHT22;6040;49.358;11.140;2022-07-06T12:52:09;29.20;52.00
11961;DHT22;6040;49.358;11.140;2022-07-06T12:54:41;28.90;51.90
11961;DHT22;6040;49.358;11.140;2022-07-06T12:57:10;28.40;52.90
11961;DHT22;6040;49.358;11.140;2022-07-06T12:59:41;28.50;54.00
11961;DHT22;6040;49.358;11.140;2022-07-06T13:02:09;28.80;52.80
11961;DHT22;6040;49.358;11.140;2022-07-06T13:04:38;29.30;53.10
11961;DHT22;6040;49.358;11.140;2022-07-06T13:07:05;29.40;51.70
11961;DHT22;6040;49.358;11.140;2022-07-06T13:09:32;29.40;52.00
11961;DHT22;6040;49.358;11.140;2022-07-06T13:11:59;29.50;52.20
11961;DHT22;6040;49.358;11.140;2022-07-06T13:14:26;29.70;52.30
11961;DHT22;6040;49.358;11.140;2022-07-06T13:16:52;29.90;53.80
11961;DHT22;6040;49.358;11.140;2022-07-06T13:19:20;29.80;51.70
11961;DHT22;6040;49.358;11.140;2022-07-06T13:21:48;29.70;52.00
11961;DHT22;6040;49.358;11.140;2022-07-06T13:24:15;29.40;51.30
11961;DHT22;6040;49.358;11.140;2022-07-06T13:26:42;29.40;55.70
11961;DHT22;6040;49.358;11.140;2022-07-06T13:29:10;29.40;56.80
11961;DHT22;6040;49.358;11.140;2022-07-06T13:31:38;29.00;53.90
11961;DHT22;6040;49.358;11.140;2022-07-06T13:34:05;29.00;54.10
11961;DHT22;6040;49.358;11.140;2022-07-06T13:36:32;28.80;53.30
11961;DHT22;6040;49.358;11.140;2022-07-06T13:39:01;28.70;54.20
11961;DHT22;6040;49.358;11.140;2022-07-06T13:41:28;28.80;54.90
11961;DHT22;6040;49.358;11.140;2022-07-06T13:43:55;28.60;53.70
11961;DHT22;6040;49.358;11.140;2022-07-06T13:46:21;28.40;53.80
11961;DHT22;6040;49.358;11.140;2022-07-06T13:48:48;28.10;54.80
11961;DHT22;6040;49.358;11.140;2022-07-06T13:51:15;27.90;55.90
11961;DHT22;6040;49.358;11.140;2022-07-06T13:53:42;27.70;56.30
11961;DHT22;6040;49.358;11.140;2022-07-06T13:56:11;27.60;55.50
11961;DHT22;6040;49.358;11.140;2022-07-06T13:58:38;27.60;56.40
11961;DHT22;6040;49.358;11.140;2022-07-06T14:01:05;27.40;56.60
11961;DHT22;6040;49.358;11.140;2022-07-06T14:06:54;27.60;56.50
11961;DHT22;6040;49.358;11.140;2022-07-06T14:09:21;27.80;55.60
11961;DHT22;6040;49.358;11.140;2022-07-06T14:11:49;27.70;54.30
11961;DHT22;6040;49.358;11.140;2022-07-06T14:14:16;27.60;54.80
11961;DHT22;6040;49.358;11.140;2022-07-06T14:16:44;27.40;54.50
11961;DHT22;6040;49.358;11.140;2022-07-06T14:19:10;27.30;55.60
11961;DHT22;6040;49.358;11.140;2022-07-06T14:21:37;27.30;55.50
11961;DHT22;6040;49.358;11.140;2022-07-06T14:24:23;27.40;55.20
11961;DHT22;6040;49.358;11.140;2022-07-06T14:27:46;27.60;55.40
11961;DHT22;6040;49.358;11.140;2022-07-06T14:30:55;27.80;55.10
11961;DHT22;6040;49.358;11.140;2022-07-06T14:33:22;27.90;55.40
11961;DHT22;6040;49.358;11.140;2022-07-06T14:35:50;27.90;54.50
11961;DHT22;6040;49.358;11.140;2022-07-06T14:38:18;27.80;54.10
11961;DHT22;6040;49.358;11.140;2022-07-06T14:40:45;27.80;54.70
11961;DHT22;6040;49.358;11.140;2022-07-06T14:43:14;27.80;54.00
11961;DHT22;6040;49.358;11.140;2022-07-06T14:45:43;27.80;55.20
11961;DHT22;6040;49.358;11.140;2022-07-06T14:48:10;27.70;55.40
11961;DHT22;6040;49.358;11.140;2022-07-06T14:50:37;27.40;54.90
11961;DHT22;6040;49.358;11.140;2022-07-06T14:53:04;27.20;54.40
11961;DHT22;6040;49.358;11.140;2022-07-06T14:55:31;27.30;56.30
11961;DHT22;6040;49.358;11.140;2022-07-06T14:57:58;27.50;54.70
11961;DHT22;6040;49.358;11.140;2022-07-06T15:00:26;27.30;54.40
11961;DHT22;6040;49.358;11.140;2022-07-06T15:02:53;27.10;54.70
11961;DHT22;6040;49.358;11.140;2022-07-06T15:05:20;26.80;54.40
11961;DHT22;6040;49.358;11.140;2022-07-06T15:07:47;26.80;55.60
11961;DHT22;6040;49.358;11.140;2022-07-06T15:10:14;26.80;55.40
11961;DHT22;6040;49.358;11.140;2022-07-06T15:12:41;26.80;54.40
11961;DHT22;6040;49.358;11.140;2022-07-06T15:15:08;26.80;55.20
11961;DHT22;6040;49.358;11.140;2022-07-06T15:17:37;26.80;55.60
11961;DHT22;6040;49.358;11.140;2022-07-06T15:20:04;26.70;55.30
11961;DHT22;6040;49.358;11.140;2022-07-06T15:22:31;26.40;55.20
11961;DHT22;6040;49.358;11.140;2022-07-06T15:25:01;26.40;55.80
11961;DHT22;6040;49.358;11.140;2022-07-06T15:27:28;26.50;56.30
11961;DHT22;6040;49.358;11.140;2022-07-06T15:29:55;26.70;56.00
11961;DHT22;6040;49.358;11.140;2022-07-06T15:32:22;26.60;55.80
11961;DHT22;6040;49.358;11.140;2022-07-06T15:34:51;26.50;55.90
11961;DHT22;6040;49.358;11.140;2022-07-06T15:37:17;26.50;55.90
11961;DHT22;6040;49.358;11.140;2022-07-06T15:39:44;26.40;56.30